Time;durP1;ratioP1;P1;durP2;ratioP2;P2;SDS_P1;SDS_P2;PMS_P1;PMS_P2;Temp;Humidity;BMP_temperature;BMP_pressure;BME280_temperature;BME280_humidity;BME280_pressure;Samples;Min_cycle;Max_cycle;Signal;HPM_P1;HPM_P2
2022/01/09 00:00:23;;;;;;;40.87;7.47;;;7.70;99.90;;;;;;5083612;28;38786;-82
2022/01/09 00:02:50;;;;;;;54.27;8.03;;;7.80;99.90;;;;;;5086223;28;38184;-82
2022/01/09 00:05:22;;;;;;;44.23;7.53;;;7.80;99.90;;;;;;5064665;28;37763;-81
2022/01/09 00:07:48;;;;;;;49.10;7.40;;;7.80;99.90;;;;;;5066242;28;38743;-83
2022/01/09 00:10:15;;;;;;;43.87;7.93;;;7.80;99.90;;;;;;5060471;28;37642;-83
2022/01/09 00:12:42;;;;;;;46.53;8.20;;;7.80;99.90;;;;;;5080991;28;37724;-82
2022/01/09 00:15:09;;;;;;;52.90;8.10;;;7.90;99.90;;;;;;5068548;28;39192;-82
2022/01/09 00:17:36;;;;;;;49.33;8.03;;;7.90;99.90;;;;;;5071594;28;37628;-82
2022/01/09 00:20:04;;;;;;;41.30;7.27;;;8.00;99.90;;;;;;5068645;28;37959;-82
2022/01/09 00:25:28;;;;;;;43.60;6.43;;;8.20;99.90;;;;;;5064687;28;39373;-82
2022/01/09 00:27:54;;;;;;;43.30;6.40;;;8.20;99.90;;;;;;5078851;28;38118;-83
2022/01/09 00:30:22;;;;;;;47.53;7.40;;;8.20;99.90;;;;;;5082646;28;38322;-82
2022/01/09 00:32:50;;;;;;;43.03;7.13;;;8.20;99.90;;;;;;5079169;28;35120;-82
2022/01/09 00:35:17;;;;;;;43.17;7.53;;;8.20;99.90;;;;;;5065387;28;38037;-82
2022/01/09 00:37:43;;;;;;;39.20;5.90;;;8.30;99.90;;;;;;5088371;28;39267;-82
2022/01/09 00:40:12;;;;;;;46.70;8.20;;;8.20;99.90;;;;;;5065196;28;37477;-83
2022/01/09 00:42:38;;;;;;;43.70;7.97;;;8.20;99.90;;;;;;5065897;28;36552;-82
2022/01/09 00:45:06;;;;;;;39.50;7.40;;;8.30;99.90;;;;;;5073165;28;38623;-82
2022/01/09 00:47:32;;;;;;;50.90;8.60;;;8.30;99.90;;;;;;5070865;28;38582;-82
2022/01/09 00:49:59;;;;;;;46.07;8.07;;;8.40;99.90;;;;;;5087199;28;40518;-82
2022/01/09 00:52:25;;;;;;;37.80;6.90;;;8.30;99.90;;;;;;5066501;28;37242;-82
2022/01/09 00:54:51;;;;;;;38.40;6.93;;;8.30;99.90;;;;;;5061967;28;38686;-82
2022/01/09 00:57:21;;;;;;;46.43;7.30;;;8.30;99.90;;;;;;5075657;28;39397;-82
2022/01/09 00:59:48;;;;;;;39.40;6.70;;;8.30;99.90;;;;;;5071039;28;38442;-82
2022/01/09 01:02:14;;;;;;;40.53;5.60;;;8.30;99.90;;;;;;5075941;28;37267;-82
2022/01/09 01:04:41;;;;;;;34.50;5.23;;;8.30;99.90;;;;;;5071242;28;38708;-82
2022/01/09 01:07:07;;;;;;;30.23;4.63;;;8.30;99.90;;;;;;5072866;28;40115;-81
2022/01/09 01:09:33;;;;;;;35.80;5.33;;;8.30;99.90;;;;;;5055793;28;36951;-82
2022/01/09 01:12:00;;;;;;;38.23;5.90;;;8.20;99.90;;;;;;5047732;28;36991;-82
2022/01/09 01:14:27;;;;;;;31.60;5.43;;;8.20;99.90;;;;;;5070817;28;41775;-82
2022/01/09 01:16:54;;;;;;;33.80;6.27;;;8.20;99.90;;;;;;5052842;28;37822;-82
2022/01/09 01:19:21;;;;;;;34.67;5.70;;;8.30;99.90;;;;;;5075495;28;35741;-82
2022/01/09 01:21:47;;;;;;;38.00;6.67;;;8.30;99.90;;;;;;5069623;28;37523;-82
2022/01/09 01:24:14;;;;;;;40.20;6.20;;;8.30;99.90;;;;;;5065772;28;39824;-82
2022/01/09 01:26:40;;;;;;;37.80;6.37;;;8.30;99.90;;;;;;5071992;28;38693;-82
2022/01/09 01:29:07;;;;;;;43.83;6.90;;;8.30;99.90;;;;;;5073889;28;38043;-81
2022/01/09 01:31:33;;;;;;;28.83;4.90;;;8.20;99.90;;;;;;5077787;28;37327;-82
2022/01/09 01:33:59;;;;;;;27.33;4.47;;;8.20;99.90;;;;;;5058220;28;37661;-81
2022/01/09 01:36:25;;;;;;;33.37;5.10;;;8.30;99.90;;;;;;5055145;28;37742;-82
2022/01/09 01:38:51;;;;;;;29.20;5.53;;;8.30;99.90;;;;;;5059097;28;37538;-82
2022/01/09 01:41:17;;;;;;;30.57;4.83;;;8.30;99.90;;;;;;5058834;28;36293;-82
2022/01/09 01:43:43;;;;;;;34.83;6.20;;;8.30;99.90;;;;;;5061494;28;37303;-81
2022/01/09 01:46:09;;;;;;;31.90;5.27;;;8.20;99.90;;;;;;5073644;28;38107;-81
2022/01/09 01:48:35;;;;;;;35.23;4.60;;;8.20;99.90;;;;;;5073974;28;36805;-82
2022/01/09 01:51:02;;;;;;;25.43;4.50;;;8.10;99.90;;;;;;5074348;28;37840;-82
2022/01/09 01:53:29;;;;;;;22.47;4.83;;;8.10;99.90;;;;;;5054491;28;38051;-81
2022/01/09 01:55:56;;;;;;;22.77;5.60;;;8.10;99.90;;;;;;5067190;28;38410;-81
2022/01/09 01:58:24;;;;;;;42.23;5.60;;;8.10;99.90;;;;;;5040464;28;38408;-81
2022/01/09 02:00:50;;;;;;;30.17;5.47;;;8.00;99.90;;;;;;5048820;28;36287;-81
2022/01/09 02:03:16;;;;;;;20.43;4.60;;;8.00;99.90;;;;;;5054271;28;38188;-81
2022/01/09 02:05:44;;;;;;;22.77;4.90;;;8.00;99.90;;;;;;5045830;28;37762;-82
2022/01/09 02:08:11;;;;;;;26.13;5.33;;;8.00;99.90;;;;;;5065524;28;37795;-81
2022/01/09 02:10:48;;;;;;;26.93;5.07;;;7.90;99.90;;;;;;5065679;28;37178;-82
2022/01/09 02:13:16;;;;;;;20.80;4.17;;;7.90;99.90;;;;;;5072244;28;39060;-82
2022/01/09 02:15:45;;;;;;;28.17;4.73;;;7.90;99.90;;;;;;5050998;28;37303;-81
2022/01/09 02:18:15;;;;;;;28.83;4.47;;;7.80;99.90;;;;;;5064764;28;38403;-82
2022/01/09 02:20:41;;;;;;;22.97;4.00;;;7.80;99.90;;;;;;5047338;28;36074;-81
2022/01/09 02:23:09;;;;;;;24.30;4.63;;;7.80;99.90;;;;;;5050906;28;37322;-81
2022/01/09 02:25:37;;;;;;;23.57;4.63;;;7.80;99.90;;;;;;5045190;28;37211;-81
2022/01/09 02:28:04;;;;;;;29.37;4.40;;;7.80;99.90;;;;;;5047077;28;37427;-81
2022/01/09 02:30:32;;;;;;;21.03;4.23;;;7.80;99.90;;;;;;5066276;28;47690;-81
2022/01/09 02:33:05;;;;;;;30.63;3.57;;;7.80;99.90;;;;;;5062764;28;38711;-81
2022/01/09 02:35:31;;;;;;;;;;;7.70;99.90;;;;;;5052397;28;47695;-81
2022/01/09 02:37:57;;;;;;;22.57;3.20;;;7.70;99.90;;;;;;5048272;28;37648;-81
2022/01/09 02:40:24;;;;;;;21.73;3.70;;;7.60;99.90;;;;;;5043459;28;37015;-79
2022/01/09 02:42:51;;;;;;;26.03;4.57;;;7.70;99.90;;;;;;5045307;28;38740;-81
2022/01/09 02:45:21;;;;;;;23.53;3.73;;;7.70;99.90;;;;;;5066466;28;38651;-81
2022/01/09 02:47:48;;;;;;;23.30;3.13;;;7.60;99.90;;;;;;5070416;28;39147;-81
2022/01/09 02:55:21;;;;;;;25.97;3.70;;;7.50;99.90;;;;;;5064847;28;38499;-81
2022/01/09 02:57:50;;;;;;;20.33;3.70;;;7.50;99.90;;;;;;5053750;28;37976;-81
2022/01/09 03:00:19;;;;;;;19.10;3.50;;;7.50;99.90;;;;;;5047873;28;36282;-81
2022/01/09 03:02:46;;;;;;;17.60;3.93;;;7.50;99.90;;;;;;5050644;28;37094;-80
2022/01/09 03:05:12;;;;;;;16.27;3.50;;;7.60;99.90;;;;;;5063587;28;38712;-80
2022/01/09 03:07:40;;;;;;;16.57;3.30;;;7.60;99.90;;;;;;5067761;28;37829;-81
2022/01/09 03:10:07;;;;;;;17.87;3.10;;;7.60;99.90;;;;;;5059591;28;36952;-80
2022/01/09 03:12:34;;;;;;;22.83;4.57;;;7.60;99.90;;;;;;5050532;28;36125;-81
2022/01/09 03:15:00;;;;;;;17.47;3.50;;;7.50;99.90;;;;;;5050657;28;38098;-81
2022/01/09 03:17:26;;;;;;;25.73;3.73;;;7.50;99.90;;;;;;5067632;28;47113;-80
2022/01/09 03:19:53;;;;;;;18.13;2.83;;;7.50;99.90;;;;;;5046659;28;36589;-80
2022/01/09 03:22:19;;;;;;;23.07;3.37;;;7.50;99.90;;;;;;5040821;28;37522;-80
2022/01/09 03:24:45;;;;;;;24.07;3.37;;;7.50;99.90;;;;;;5061998;28;38896;-79
2022/01/09 03:27:11;;;;;;;21.93;4.33;;;7.50;99.90;;;;;;5051773;28;37184;-80
2022/01/09 03:29:38;;;;;;;24.47;2.90;;;7.50;99.90;;;;;;5048262;28;36494;-80
2022/01/09 03:32:05;;;;;;;12.57;2.47;;;7.50;99.90;;;;;;5064604;28;38530;-80
2022/01/09 03:34:32;;;;;;;13.10;2.50;;;7.50;99.90;;;;;;5070024;28;39266;-80
2022/01/09 03:36:59;;;;;;;15.87;3.30;;;7.40;99.90;;;;;;5064158;28;37217;-80
2022/01/09 03:39:25;;;;;;;22.40;2.90;;;7.40;99.90;;;;;;5042190;28;36619;-80
2022/01/09 03:41:51;;;;;;;13.40;2.57;;;7.40;99.90;;;;;;5068695;28;38914;-81
2022/01/09 03:44:17;;;;;;;12.37;2.50;;;7.40;99.90;;;;;;5057691;28;39271;-80
2022/01/09 03:46:43;;;;;;;15.57;3.33;;;7.30;99.90;;;;;;5057514;28;38974;-80
2022/01/09 03:49:09;;;;;;;16.10;3.40;;;7.30;99.90;;;;;;5044126;28;37337;-80
2022/01/09 03:51:37;;;;;;;23.67;2.93;;;7.30;99.90;;;;;;5042647;28;37645;-81
2022/01/09 03:54:05;;;;;;;16.47;2.80;;;7.30;99.90;;;;;;5052822;28;38839;-80
2022/01/09 03:56:32;;;;;;;21.90;2.73;;;7.30;99.90;;;;;;5049243;28;37060;-80
2022/01/09 03:58:59;;;;;;;16.23;2.90;;;7.20;99.90;;;;;;5045090;28;36489;-80
2022/01/09 04:01:26;;;;;;;15.97;3.10;;;7.30;99.90;;;;;;5061523;28;38584;-81
2022/01/09 04:03:52;;;;;;;18.37;2.93;;;7.30;99.90;;;;;;5069861;28;38522;-80
2022/01/09 04:06:19;;;;;;;14.83;2.97;;;7.30;99.90;;;;;;5043566;28;36204;-79
2022/01/09 04:08:45;;;;;;;19.93;3.50;;;7.30;99.90;;;;;;5042774;28;36305;-80
2022/01/09 04:11:16;;;;;;;17.30;3.03;;;7.30;99.90;;;;;;5049043;28;37659;-80
2022/01/09 04:13:42;;;;;;;16.83;3.70;;;7.30;99.90;;;;;;5043937;28;39451;-79
2022/01/09 04:16:08;;;;;;;20.03;3.43;;;7.30;99.90;;;;;;5058822;28;39125;-80
2022/01/09 04:18:34;;;;;;;23.77;3.87;;;7.20;99.90;;;;;;5063339;28;37488;-80
2022/01/09 04:21:00;;;;;;;14.00;3.03;;;7.30;99.90;;;;;;5055769;28;39330;-81
2022/01/09 04:23:26;;;;;;;21.23;2.80;;;7.30;99.90;;;;;;5064243;28;38476;-81
2022/01/09 04:25:52;;;;;;;22.30;3.23;;;7.40;99.90;;;;;;5060490;28;39049;-80
2022/01/09 04:28:18;;;;;;;18.03;3.03;;;7.30;99.90;;;;;;5038596;28;36999;-79
2022/01/09 04:30:45;;;;;;;22.30;3.40;;;7.40;99.90;;;;;;5043590;28;38131;-80
2022/01/09 04:33:12;;;;;;;15.43;2.87;;;7.40;99.90;;;;;;5064685;28;38639;-80
2022/01/09 04:35:39;;;;;;;23.37;4.20;;;7.40;99.90;;;;;;5060614;28;38095;-80
2022/01/09 04:38:06;;;;;;;21.67;3.00;;;7.30;99.90;;;;;;5047039;28;36522;-80
2022/01/09 04:40:32;;;;;;;19.03;3.37;;;7.30;99.90;;;;;;5043091;28;37843;-81
2022/01/09 04:43:01;;;;;;;14.70;2.83;;;7.30;99.90;;;;;;5062857;28;36885;-80
2022/01/09 04:45:28;;;;;;;16.83;3.00;;;7.30;99.90;;;;;;5053370;28;38002;-80
2022/01/09 04:48:00;;;;;;;18.20;3.17;;;7.30;99.90;;;;;;5046468;28;35970;-80
2022/01/09 04:50:29;;;;;;;20.63;3.73;;;7.30;99.90;;;;;;5044770;28;38970;-80
2022/01/09 04:53:04;;;;;;;18.30;2.97;;;7.30;99.90;;;;;;5055921;28;38332;-80
2022/01/09 04:55:32;;;;;;;20.30;3.73;;;7.10;99.90;;;;;;5040785;28;47221;-80
2022/01/09 04:57:59;;;;;;;18.17;3.73;;;7.00;99.90;;;;;;5065198;28;36938;-80
2022/01/09 05:00:25;;;;;;;14.37;3.80;;;6.90;99.90;;;;;;5058766;28;39839;-80
2022/01/09 05:02:51;;;;;;;13.47;3.17;;;6.90;99.90;;;;;;5061243;28;38346;-80
2022/01/09 05:05:18;;;;;;;19.90;3.20;;;6.90;99.90;;;;;;5041682;28;37145;-80
2022/01/09 05:07:46;;;;;;;14.50;2.77;;;6.90;99.90;;;;;;5064575;28;38120;-80
2022/01/09 05:10:13;;;;;;;15.13;3.03;;;7.00;99.90;;;;;;5058330;28;38858;-79
2022/01/09 05:12:39;;;;;;;17.63;3.47;;;7.00;99.90;;;;;;5035195;28;37297;-79
2022/01/09 05:15:07;;;;;;;20.43;2.57;;;6.90;99.90;;;;;;5035383;28;36893;-80
2022/01/09 05:17:34;;;;;;;19.07;3.50;;;7.00;99.90;;;;;;5057321;28;37662;-80
2022/01/09 05:20:00;;;;;;;14.80;2.73;;;6.90;99.90;;;;;;5071474;28;38541;-80
2022/01/09 05:22:28;;;;;;;20.40;3.40;;;6.80;99.90;;;;;;5051766;28;47942;-80
2022/01/09 05:24:57;;;;;;;15.93;3.17;;;6.80;99.90;;;;;;5047268;28;37670;-80
2022/01/09 05:27:25;;;;;;;21.13;2.80;;;6.80;99.90;;;;;;5067006;28;37333;-80
2022/01/09 05:29:51;;;;;;;18.40;3.87;;;6.90;99.90;;;;;;5064153;28;39379;-80
2022/01/09 05:32:18;;;;;;;20.47;3.27;;;6.80;99.90;;;;;;5045441;28;38576;-80
2022/01/09 05:34:44;;;;;;;24.47;4.80;;;6.90;99.90;;;;;;5055199;28;37166;-80
2022/01/09 05:37:10;;;;;;;19.20;3.57;;;6.90;99.90;;;;;;5045343;28;36396;-81
2022/01/09 05:39:36;;;;;;;21.40;3.17;;;6.90;99.90;;;;;;5045902;28;38726;-80
2022/01/09 05:42:06;;;;;;;19.67;3.10;;;6.90;99.90;;;;;;5054718;28;38240;-79
2022/01/09 05:44:33;;;;;;;18.90;3.20;;;6.90;99.90;;;;;;5051985;28;38557;-80
2022/01/09 05:47:00;;;;;;;13.27;2.60;;;7.00;99.90;;;;;;5047108;28;36327;-80
2022/01/09 05:49:26;;;;;;;18.63;3.03;;;7.00;99.90;;;;;;5060847;28;39587;-79
2022/01/09 05:51:53;;;;;;;21.67;2.73;;;6.90;99.90;;;;;;5055732;28;39249;-80
2022/01/09 05:54:19;;;;;;;22.47;3.43;;;6.90;99.90;;;;;;5049465;28;37002;-80
2022/01/09 05:56:45;;;;;;;19.50;3.50;;;6.90;99.90;;;;;;5050029;28;36343;-80
2022/01/09 05:59:11;;;;;;;14.03;2.70;;;7.00;99.90;;;;;;5045144;28;38754;-80
2022/01/09 06:01:37;;;;;;;15.43;3.90;;;7.00;99.90;;;;;;5060943;28;38027;-80
2022/01/09 06:04:05;;;;;;;20.07;3.30;;;7.00;99.90;;;;;;5057168;28;38734;-81
2022/01/09 06:06:32;;;;;;;14.67;2.77;;;7.00;99.90;;;;;;5060206;28;37257;-80
2022/01/09 06:08:58;;;;;;;13.13;3.87;;;7.10;99.90;;;;;;5051098;28;37990;-80
2022/01/09 06:11:24;;;;;;;18.70;2.63;;;7.10;99.90;;;;;;5059549;28;39692;-81
2022/01/09 06:13:50;;;;;;;17.47;3.00;;;7.10;99.90;;;;;;5045407;28;36795;-80
2022/01/09 06:16:16;;;;;;;15.57;2.90;;;7.20;99.90;;;;;;5062141;28;37557;-80
2022/01/09 06:18:42;;;;;;;14.80;3.40;;;7.20;99.90;;;;;;5045951;28;38043;-80
2022/01/09 06:21:09;;;;;;;18.53;3.57;;;7.10;99.90;;;;;;5042222;28;37503;-81
2022/01/09 06:23:35;;;;;;;24.57;2.97;;;7.00;99.90;;;;;;5054790;28;37047;-81
2022/01/09 06:26:01;;;;;;;23.93;3.50;;;6.90;99.90;;;;;;5042811;28;36277;-80
2022/01/09 06:28:27;;;;;;;25.97;4.30;;;6.80;99.90;;;;;;5055348;28;38794;-80
2022/01/09 06:30:53;;;;;;;22.87;3.40;;;6.80;99.90;;;;;;5045191;28;38963;-80
2022/01/09 06:33:19;;;;;;;21.03;3.53;;;6.80;99.90;;;;;;5059770;28;38505;-80
2022/01/09 06:35:45;;;;;;;16.30;3.10;;;6.80;99.90;;;;;;5058300;28;37367;-80
2022/01/09 06:38:11;;;;;;;20.57;3.23;;;6.80;99.90;;;;;;5033272;28;37571;-80
2022/01/09 06:40:37;;;;;;;15.90;2.90;;;6.80;99.90;;;;;;5059256;28;38275;-80
2022/01/09 06:43:04;;;;;;;11.53;2.27;;;6.70;99.90;;;;;;5067174;28;38014;-80
2022/01/09 06:45:30;;;;;;;18.17;2.63;;;6.70;99.90;;;;;;5066690;28;37221;-80
2022/01/09 06:47:57;;;;;;;27.37;3.60;;;6.80;99.90;;;;;;5048124;28;38815;-81
2022/01/09 06:50:26;;;;;;;21.30;3.30;;;6.80;99.90;;;;;;5060870;28;39398;-81
2022/01/09 06:52:52;;;;;;;15.97;3.20;;;6.90;99.90;;;;;;5046045;28;39777;-80
2022/01/09 06:55:19;;;;;;;12.50;2.43;;;7.00;99.90;;;;;;5061000;28;37273;-80
2022/01/09 06:57:45;;;;;;;18.90;2.60;;;7.00;99.90;;;;;;5047023;28;38079;-81
2022/01/09 07:00:13;;;;;;;13.27;2.43;;;7.00;99.90;;;;;;5045642;28;38008;-80
2022/01/09 07:02:39;;;;;;;15.47;2.63;;;7.00;99.90;;;;;;5062842;28;37380;-80
2022/01/09 07:05:06;;;;;;;15.97;2.70;;;7.00;99.90;;;;;;5045411;28;36392;-80
2022/01/09 07:07:32;;;;;;;15.10;3.47;;;7.00;99.90;;;;;;5062688;28;38726;-80
2022/01/09 07:09:58;;;;;;;15.70;2.33;;;7.00;99.90;;;;;;5069863;28;38356;-80
2022/01/09 07:12:24;;;;;;;20.83;3.13;;;7.00;99.90;;;;;;5048319;28;38146;-80
2022/01/09 07:14:50;;;;;;;14.40;2.60;;;7.00;99.90;;;;;;5047612;28;37710;-80
2022/01/09 07:17:16;;;;;;;12.67;2.33;;;7.00;99.90;;;;;;5064073;28;37625;-80
2022/01/09 07:19:42;;;;;;;15.73;2.57;;;7.00;99.90;;;;;;5052965;28;37363;-80
2022/01/09 07:22:08;;;;;;;19.63;2.93;;;6.70;99.90;;;;;;5059736;28;38206;-80
2022/01/09 07:24:35;;;;;;;19.73;3.07;;;6.50;99.90;;;;;;5057827;28;37216;-81
2022/01/09 07:27:01;;;;;;;14.13;2.47;;;6.40;99.90;;;;;;5035862;28;37693;-81
2022/01/09 07:29:27;;;;;;;15.60;2.60;;;6.30;99.90;;;;;;5057663;28;49512;-81
2022/01/09 07:31:53;;;;;;;16.83;2.77;;;6.40;99.90;;;;;;5056855;28;39808;-81
2022/01/09 07:34:20;;;;;;;14.80;2.10;;;6.40;99.90;;;;;;5041880;28;36211;-81
2022/01/09 07:36:47;;;;;;;16.10;2.77;;;6.50;99.90;;;;;;5044054;28;37615;-81
2022/01/09 07:39:14;;;;;;;20.23;3.30;;;6.40;99.90;;;;;;5064958;28;38488;-81
2022/01/09 07:41:41;;;;;;;18.33;2.90;;;6.50;99.90;;;;;;5057293;28;39138;-81
2022/01/09 07:44:07;;;;;;;19.67;3.07;;;6.60;99.90;;;;;;5058942;28;37366;-81
2022/01/09 07:46:34;;;;;;;15.47;2.93;;;6.70;99.90;;;;;;5041867;28;38536;-81
2022/01/09 07:49:00;;;;;;;16.73;3.40;;;6.70;99.90;;;;;;5068358;28;38157;-81
2022/01/09 07:51:26;;;;;;;14.57;2.77;;;6.70;99.90;;;;;;5064972;28;47191;-81
2022/01/09 07:53:52;;;;;;;21.80;3.07;;;6.80;99.90;;;;;;5061427;28;37727;-82
2022/01/09 07:56:18;;;;;;;22.77;3.70;;;6.80;99.90;;;;;;5044628;28;38019;-80
2022/01/09 07:58:44;;;;;;;18.00;2.50;;;6.70;99.90;;;;;;5058679;28;37089;-81
2022/01/09 08:01:11;;;;;;;25.50;4.17;;;6.50;99.90;;;;;;5071483;28;37668;-81
2022/01/09 08:03:37;;;;;;;15.40;3.23;;;6.40;99.90;;;;;;5063635;28;37203;-82
2022/01/09 08:06:03;;;;;;;23.87;3.27;;;6.40;99.90;;;;;;5051842;28;39074;-82
2022/01/09 08:08:40;;;;;;;17.50;2.87;;;6.30;99.90;;;;;;5064486;28;37210;-83
2022/01/09 08:11:06;;;;;;;17.67;3.20;;;6.30;99.90;;;;;;5072109;28;39067;-81
2022/01/09 08:13:32;;;;;;;20.07;3.10;;;6.40;99.90;;;;;;5070170;28;37493;-82
2022/01/09 08:15:58;;;;;;;20.03;2.70;;;6.40;99.90;;;;;;5091382;28;40195;-83
2022/01/09 08:18:24;;;;;;;17.37;3.00;;;6.40;99.90;;;;;;5069547;28;39063;-82
2022/01/09 08:20:50;;;;;;;30.50;3.53;;;6.40;99.90;;;;;;5085147;28;39633;-83
2022/01/09 08:23:19;;;;;;;21.73;3.00;;;6.40;99.90;;;;;;5082591;28;38605;-82
2022/01/09 08:26:34;;;;;;;18.70;3.30;;;6.50;99.90;;;;;;5035687;28;38059;-83
2022/01/09 08:29:02;;;;;;;20.23;3.00;;;6.70;99.90;;;;;;5061644;28;48480;-83
2022/01/09 08:31:28;;;;;;;13.37;2.90;;;6.90;99.90;;;;;;5058739;22;38179;-79
2022/01/09 08:33:54;;;;;;;20.37;3.47;;;6.90;99.90;;;;;;5016965;28;38261;-78
2022/01/09 08:36:20;;;;;;;17.17;2.67;;;6.90;99.90;;;;;;5016508;28;38624;-77
2022/01/09 08:38:48;;;;;;;18.77;2.80;;;7.00;99.90;;;;;;5006206;28;40086;-78
2022/01/09 08:41:14;;;;;;;21.47;3.23;;;7.00;99.90;;;;;;5018130;28;37634;-77
2022/01/09 08:43:40;;;;;;;20.10;3.93;;;7.00;99.90;;;;;;5012656;28;37613;-78
2022/01/09 08:46:08;;;;;;;19.33;3.70;;;7.00;99.90;;;;;;5014996;28;38738;-78
2022/01/09 08:48:34;;;;;;;26.53;3.47;;;6.90;99.90;;;;;;5020030;28;38307;-78
2022/01/09 08:51:01;;;;;;;28.73;3.43;;;6.90;99.90;;;;;;5030426;28;38372;-77
2022/01/09 08:53:27;;;;;;;17.63;3.10;;;6.90;99.90;;;;;;5000621;28;48521;-78
2022/01/09 08:55:53;;;;;;;21.40;3.20;;;7.00;99.90;;;;;;5020734;28;38905;-78
2022/01/09 08:58:19;;;;;;;15.53;3.23;;;7.00;99.90;;;;;;5022940;28;38230;-77
2022/01/09 09:00:45;;;;;;;22.47;2.90;;;7.00;99.90;;;;;;5038319;28;38664;-78
2022/01/09 09:03:11;;;;;;;22.87;3.17;;;7.00;99.90;;;;;;5021681;28;37249;-78
2022/01/09 09:05:38;;;;;;;10.93;2.83;;;7.00;99.90;;;;;;5006243;28;40600;-78
2022/01/09 09:08:04;;;;;;;19.00;3.40;;;7.00;99.90;;;;;;5002335;28;38286;-78
2022/01/09 09:10:30;;;;;;;19.93;4.27;;;7.00;99.90;;;;;;5006864;28;38468;-78
2022/01/09 09:12:56;;;;;;;16.03;2.77;;;7.00;99.90;;;;;;5003286;28;38736;-78
2022/01/09 09:15:23;;;;;;;17.53;3.10;;;7.10;99.90;;;;;;5007167;28;39304;-78
2022/01/09 09:17:49;;;;;;;27.03;4.77;;;7.10;99.90;;;;;;5026924;28;37571;-77
2022/01/09 09:20:15;;;;;;;20.67;3.13;;;7.20;99.90;;;;;;4987524;28;38474;-78
2022/01/09 09:22:41;;;;;;;21.73;3.67;;;7.30;99.90;;;;;;5008124;28;39983;-78
2022/01/09 09:25:08;;;;;;;20.77;3.80;;;7.40;99.90;;;;;;4997983;28;37144;-78
2022/01/09 09:27:34;;;;;;;21.90;4.27;;;7.40;99.90;;;;;;5026321;28;38925;-78
2022/01/09 09:30:03;;;;;;;23.27;4.00;;;7.40;99.90;;;;;;5018869;28;38373;-77
2022/01/09 09:32:30;;;;;;;16.97;3.47;;;7.40;99.90;;;;;;5013892;28;48618;-77
2022/01/09 09:34:57;;;;;;;18.80;3.13;;;7.60;99.90;;;;;;5002420;28;39553;-78
2022/01/09 09:37:26;;;;;;;17.57;3.13;;;7.70;99.90;;;;;;5022832;28;38467;-78
2022/01/09 09:39:52;;;;;;;24.00;3.53;;;7.70;99.90;;;;;;5019910;28;37916;-78
2022/01/09 09:42:18;;;;;;;19.20;3.13;;;7.60;99.90;;;;;;5004808;28;37828;-77
2022/01/09 09:44:45;;;;;;;17.50;2.40;;;7.60;99.90;;;;;;5006863;28;39424;-78
2022/01/09 09:47:11;;;;;;;12.63;2.80;;;7.60;99.90;;;;;;5034216;28;40232;-77
2022/01/09 09:49:38;;;;;;;16.93;3.00;;;7.60;99.90;;;;;;5039902;28;37119;-77
2022/01/09 09:52:06;;;;;;;18.77;2.83;;;7.50;99.90;;;;;;5021429;28;37094;-78
2022/01/09 09:54:33;;;;;;;11.67;3.20;;;7.50;99.90;;;;;;5037576;28;39245;-79
2022/01/09 09:56:59;;;;;;;15.33;2.83;;;7.50;99.90;;;;;;5024181;28;37584;-79
2022/01/09 09:59:28;;;;;;;20.80;3.43;;;7.60;99.90;;;;;;5019203;28;37999;-79
2022/01/09 10:01:54;;;;;;;20.43;3.57;;;7.60;99.90;;;;;;5004886;28;39011;-79
2022/01/09 10:04:20;;;;;;;18.37;3.23;;;7.60;99.90;;;;;;5017579;28;38300;-79
2022/01/09 10:06:48;;;;;;;20.90;3.80;;;7.60;99.90;;;;;;5040669;28;39827;-78
2022/01/09 10:09:17;;;;;;;23.57;3.87;;;7.60;99.90;;;;;;5024871;28;38935;-79
2022/01/09 10:11:46;;;;;;;13.47;2.87;;;7.60;99.90;;;;;;5011576;28;38160;-78
2022/01/09 10:14:20;;;;;;;19.60;3.07;;;7.60;99.90;;;;;;5014268;28;20086;-79
2022/01/09 10:17:07;;;;;;;22.77;4.43;;;7.60;99.90;;;;;;5025825;28;38515;-79
2022/01/09 10:19:52;;;;;;;21.13;3.03;;;7.60;99.90;;;;;;5036086;28;46915;-78
2022/01/09 10:22:24;;;;;;;16.67;3.03;;;7.60;99.90;;;;;;5022552;28;37008;-78
2022/01/09 10:24:50;;;;;;;19.75;2.67;;;7.60;99.90;;;;;;5025128;28;40542;-78
2022/01/09 10:27:31;;;;;;;21.43;2.97;;;7.60;99.90;;;;;;5020268;28;39849;-78
2022/01/09 10:29:57;;;;;;;20.20;5.03;;;7.70;99.90;;;;;;5007994;28;36923;-78
2022/01/09 10:32:31;;;;;;;19.93;3.77;;;7.70;99.90;;;;;;5035125;28;37587;-78
2022/01/09 10:35:11;;;;;;;22.37;3.93;;;7.70;99.90;;;;;;5025388;28;39758;-79
2022/01/09 10:37:39;;;;;;;17.50;2.57;;;7.80;99.90;;;;;;5024963;28;48945;-78
2022/01/09 10:40:08;;;;;;;18.90;3.50;;;7.80;99.90;;;;;;5003912;28;37001;-77
2022/01/09 10:42:35;;;;;;;13.67;2.63;;;7.60;99.90;;;;;;5009509;28;36126;-78
2022/01/09 10:45:24;;;;;;;13.27;2.87;;;7.40;99.90;;;;;;5009712;28;37963;-76
2022/01/09 10:47:55;;;;;;;17.53;3.13;;;7.20;99.90;;;;;;4997362;28;47393;-78
2022/01/09 10:50:27;;;;;;;22.77;4.97;;;7.30;99.90;;;;;;5012730;28;38644;-78
2022/01/09 10:53:21;;;;;;;18.05;3.30;;;7.40;99.90;;;;;;5005468;28;37305;-78
2022/01/09 10:56:10;;;;;;;14.23;3.07;;;7.50;99.90;;;;;;5036362;28;48354;-78
2022/01/09 10:58:41;;;;;;;11.53;3.33;;;7.60;99.90;;;;;;5035235;28;47513;-78
2022/01/09 11:01:24;;;;;;;18.87;3.03;;;7.70;99.90;;;;;;5027633;28;38297;-78
2022/01/09 11:03:51;;;;;;;17.65;2.88;;;7.70;99.90;;;;;;5015804;28;36890;-78
2022/01/09 11:06:18;;;;;;;20.13;2.93;;;7.70;99.90;;;;;;5032088;28;37651;-78
2022/01/09 11:08:45;;;;;;;17.90;3.33;;;7.70;99.90;;;;;;5038279;28;38370;-78
2022/01/09 11:11:36;;;;;;;19.87;2.90;;;7.70;99.90;;;;;;5020309;28;38045;-79
2022/01/09 11:14:04;;;;;;;16.37;3.00;;;7.80;99.90;;;;;;5024725;28;36653;-78
2022/01/09 11:16:32;;;;;;;23.83;3.97;;;7.90;99.90;;;;;;5040189;28;39918;-78
2022/01/09 11:19:28;;;;;;;13.83;3.30;;;8.00;99.90;;;;;;5006193;28;39264;-78
2022/01/09 11:21:59;;;;;;;14.70;2.63;;;8.20;99.90;;;;;;5006915;28;48564;-78
2022/01/09 11:24:31;;;;;;;17.47;2.87;;;8.30;99.90;;;;;;5020957;28;38106;-79
2022/01/09 11:27:27;;;;;;;21.90;3.15;;;8.30;99.90;;;;;;5013105;28;40002;-78
2022/01/09 11:30:17;;;;;;;20.30;3.70;;;8.40;99.90;;;;;;5029998;28;47665;-78
2022/01/09 11:33:14;;;;;;;21.40;3.20;;;8.50;99.90;;;;;;5018575;28;49112;-78
2022/01/09 11:35:59;;;;;;;21.67;3.27;;;8.70;99.90;;;;;;5033561;28;46655;-77
2022/01/09 11:38:48;;;;;;;26.03;4.53;;;8.70;99.90;;;;;;5033513;28;37654;-77
2022/01/09 11:41:27;;;;;;;17.97;3.07;;;8.70;99.90;;;;;;5000673;28;37556;-77
2022/01/09 11:44:02;;;;;;;16.07;2.67;;;8.80;99.90;;;;;;4997238;28;37009;-76
2022/01/09 11:46:31;;;;;;;12.93;3.10;;;9.00;99.90;;;;;;5005616;28;47542;-77
2022/01/09 11:49:00;;;;;;;19.70;3.07;;;9.30;99.90;;;;;;5002018;28;37526;-76
2022/01/09 11:51:33;;;;;;;15.77;3.53;;;9.50;99.90;;;;;;5016547;28;47336;-76
2022/01/09 11:54:11;;;;;;;17.00;3.43;;;9.50;99.90;;;;;;5021804;28;38051;-78
2022/01/09 11:57:06;;;;;;;16.70;3.43;;;9.70;99.90;;;;;;5019520;28;49096;-77
2022/01/09 11:59:38;;;;;;;16.93;3.03;;;9.50;99.90;;;;;;5000900;28;48084;-78
2022/01/09 12:02:17;;;;;;;16.80;3.30;;;9.20;99.90;;;;;;5022308;28;38463;-77
2022/01/09 12:04:45;;;;;;;15.80;2.70;;;9.00;99.90;;;;;;5039935;28;38022;-77
2022/01/09 12:07:14;;;;;;;17.60;2.87;;;8.80;99.90;;;;;;5026726;28;37002;-76
2022/01/09 12:09:50;;;;;;;14.10;2.87;;;8.70;99.90;;;;;;5022787;28;39580;-76
2022/01/09 12:12:34;;;;;;;19.00;2.60;;;8.70;99.90;;;;;;5037080;28;37247;-77
2022/01/09 12:15:04;;;;;;;21.93;3.27;;;8.80;99.90;;;;;;5026046;28;37936;-77
2022/01/09 12:17:33;;;;;;;15.40;2.93;;;9.00;99.90;;;;;;5039108;28;47193;-77
2022/01/09 12:20:11;;;;;;;15.90;3.30;;;8.90;99.90;;;;;;5022319;28;39281;-79
2022/01/09 12:22:45;;;;;;;21.60;3.63;;;8.70;99.90;;;;;;5027952;28;47319;-78
2022/01/09 12:27:54;;;;;;;16.23;2.63;;;8.70;99.90;;;;;;5022700;28;37271;-78
2022/01/09 12:30:33;;;;;;;16.37;2.70;;;8.70;99.90;;;;;;5034617;28;37722;-78
2022/01/09 12:33:09;;;;;;;12.10;2.70;;;8.60;99.90;;;;;;5042177;28;36070;-78
2022/01/09 12:35:41;;;;;;;21.43;2.87;;;8.70;99.90;;;;;;5036592;28;47418;-78
2022/01/09 12:38:12;;;;;;;18.87;2.73;;;8.70;99.90;;;;;;5006096;28;36262;-77
2022/01/09 12:40:40;;;;;;;18.57;2.70;;;8.80;99.90;;;;;;5025732;28;38545;-78
2022/01/09 12:43:07;;;;;;;15.57;3.30;;;8.70;99.90;;;;;;5004799;28;38285;-78
2022/01/09 12:45:37;;;;;;;15.17;3.20;;;8.80;99.90;;;;;;5004823;28;37075;-77
2022/01/09 12:48:05;;;;;;;16.47;2.70;;;8.80;99.90;;;;;;5041489;28;36205;-77
2022/01/09 12:50:39;;;;;;;21.73;4.90;;;8.70;99.90;;;;;;5037714;28;37540;-77
2022/01/09 12:53:30;;;;;;;17.77;4.30;;;8.80;99.90;;;;;;5018415;28;39061;-77
2022/01/09 12:56:05;;;;;;;12.40;2.43;;;9.10;99.90;;;;;;5036046;28;37241;-78
2022/01/09 12:58:31;;;;;;;17.47;3.03;;;9.30;99.90;;;;;;5040720;28;47461;-77
2022/01/09 13:00:59;;;;;;;15.47;3.40;;;9.50;99.90;;;;;;5034145;28;39024;-78
2022/01/09 13:03:31;;;;;;;13.57;2.83;;;9.50;99.90;;;;;;5018459;28;38474;-77
2022/01/09 13:06:06;;;;;;;17.43;3.13;;;9.40;99.90;;;;;;5029928;28;38817;-76